Terminal Aerodrome Forecast
Issued by NWS

Home | Current Version | Previous Version | Text Only | Print | Product List | Glossary On
Versions: 1 2 3 4 5 6 7 8 9 10 11 12 13 14 15 16 17 18 19 20
000
FTUS46 KSEW 271126
TAFOLM
TAF
KOLM 271126Z 2712/2812 VRB03KT 5SM BR SCT006 BKN030 BKN050
      TEMPO 2712/2716 2SM BR BKN006 OVC030
     FM271600 20006KT P6SM VCSH BKN025 BKN045
     FM272200 22008KT P6SM VCSH BKN030 BKN050
     FM280500 21005KT P6SM BKN030 BKN050=

USA.gov is the U.S. government's official web portal to all federal, state and local government web resources and services.